Time;durP1;ratioP1;P1;durP2;ratioP2;P2;SDS_P1;SDS_P2;PMS_P1;PMS_P2;Temp;Humidity;BMP_temperature;BMP_pressure;BME280_temperature;BME280_humidity;BME280_pressure;Samples;Min_cycle;Max_cycle;Signal;HPM_P1;HPM_P2
2021/12/25 00:02:19;;;;;;;10.30;3.67;;;;;;;17.99;51.31;99124.16;5070694;28;20547;-59
2021/12/25 00:04:44;;;;;;;9.80;3.23;;;;;;;17.97;51.05;99127.41;5069523;28;20437;-59
2021/12/25 00:07:10;;;;;;;10.23;3.80;;;;;;;17.91;51.49;99122.53;5069519;28;20211;-58
2021/12/25 00:09:35;;;;;;;10.43;3.90;;;;;;;17.87;51.25;99124.56;5069554;28;20191;-58
2021/12/25 00:12:01;;;;;;;9.30;4.00;;;;;;;17.88;51.72;99123.31;5058917;28;20183;-58
2021/12/25 00:14:26;;;;;;;9.53;3.67;;;;;;;17.83;51.66;99121.69;5050104;28;20178;-58
2021/12/25 00:16:53;;;;;;;10.10;3.20;;;;;;;17.89;51.39;99125.78;5064197;28;20194;-58
2021/12/25 00:19:18;;;;;;;13.50;5.07;;;;;;;17.98;51.06;99114.78;5070546;28;20207;-59
2021/12/25 00:21:44;;;;;;;10.13;3.50;;;;;;;17.93;51.39;99117.22;5070833;28;20421;-59
2021/12/25 00:24:09;;;;;;;11.00;3.23;;;;;;;17.92;51.40;99118.44;5071089;28;20171;-58
2021/12/25 00:27:05;;;;;;;10.87;3.70;;;;;;;17.86;51.65;99115.16;5069945;28;20237;-58
2021/12/25 00:29:50;;;;;;;9.07;3.10;;;;;;;17.85;51.10;99107.81;5068334;28;20187;-58
2021/12/25 00:32:29;;;;;;;6.57;2.90;;;;;;;17.86;51.80;99111.50;5064634;28;20968;-59
2021/12/25 00:34:55;;;;;;;6.43;3.17;;;;;;;17.83;51.81;99106.59;5050230;28;20422;-58
2021/12/25 00:37:20;;;;;;;6.13;2.90;;;;;;;17.83;51.31;99106.59;5050349;28;20426;-58
2021/12/25 00:39:45;;;;;;;10.10;3.97;;;;;;;17.85;51.45;99116.38;5052802;28;20210;-59
2021/12/25 00:42:11;;;;;;;8.13;3.20;;;;;;;17.80;51.83;99113.94;5059008;28;20184;-58
2021/12/25 00:44:37;;;;;;;5.93;2.87;;;;;;;17.86;51.47;99108.66;5049918;28;20179;-59
2021/12/25 00:47:03;;;;;;;8.43;3.27;;;;;;;17.82;51.95;99107.81;5061023;28;20320;-58
2021/12/25 00:49:29;;;;;;;10.20;3.47;;;;;;;17.80;51.44;99111.06;5069095;28;20254;-59
2021/12/25 00:51:54;;;;;;;7.80;3.40;;;;;;;17.82;52.05;99107.81;5068867;28;20506;-59
2021/12/25 00:54:19;;;;;;;10.23;3.90;;;;;;;17.82;51.40;99111.50;5064156;28;20646;-58
2021/12/25 00:56:45;;;;;;;10.70;2.77;;;;;;;17.79;51.71;99102.91;5056489;28;20549;-58
2021/12/25 00:59:10;;;;;;;7.67;2.80;;;;;;;17.83;51.59;99103.75;5061364;28;20322;-58
2021/12/25 01:01:36;;;;;;;7.63;3.67;;;;;;;17.85;51.28;99110.69;5050366;28;20175;-58
2021/12/25 01:04:02;;;;;;;8.93;3.43;;;;;;;17.84;51.72;99111.91;5049095;28;20182;-59
2021/12/25 01:06:27;;;;;;;8.50;3.20;;;;;;;17.80;51.59;99113.94;5048764;28;20196;-58
2021/12/25 01:08:53;;;;;;;15.03;3.60;;;;;;;17.82;51.29;99105.78;5068948;28;20194;-58
2021/12/25 01:11:18;;;;;;;12.53;3.43;;;;;;;17.78;51.65;99107.00;5069333;28;20239;-57
2021/12/25 01:13:54;;;;;;;11.53;3.20;;;;;;;17.83;51.58;99101.72;5066899;28;20674;-58
2021/12/25 01:16:52;;;;;;;5.97;2.80;;;;;;;17.82;52.07;99111.50;5065498;28;20701;-58
2021/12/25 01:24:42;;;;;;;9.50;3.40;;;;;;;17.81;51.75;99101.28;5063682;28;20433;-58
2021/12/25 01:32:36;;;;;;;8.03;3.00;;;;;;;17.95;51.10;99100.47;5049719;28;20434;-58
2021/12/25 01:48:23;;;;;;;8.80;2.40;;;;;;;18.04;50.85;99101.72;5064084;28;20529;-58
2021/12/25 01:50:48;;;;;;;6.60;2.87;;;;;;;17.97;51.05;99090.28;5068568;28;20413;-57
2021/12/25 01:53:14;;;;;;;7.47;3.50;;;;;;;17.95;50.92;99087.03;5065440;28;20970;-58
2021/12/25 01:55:39;;;;;;;7.60;2.60;;;;;;;17.95;51.26;99084.19;5050612;28;20182;-58
2021/12/25 01:58:05;;;;;;;7.60;3.03;;;;;;;17.96;51.19;99082.94;5047434;28;20224;-58
2021/12/25 02:00:38;;;;;;;4.67;2.37;;;;;;;17.91;51.51;99088.25;5063366;28;20506;-58
2021/12/25 02:03:05;;;;;;;5.20;2.30;;;;;;;17.87;51.57;99076.84;5069411;28;20643;-58
2021/12/25 02:05:30;;;;;;;8.83;3.67;;;;;;;17.91;51.40;99077.63;5069034;28;20427;-58
2021/12/25 02:07:56;;;;;;;12.50;2.97;;;;;;;17.89;51.40;99077.25;5068280;28;20453;-58
2021/12/25 02:10:21;;;;;;;8.50;2.87;;;;;;;17.85;51.31;99082.13;5056103;28;20183;-57
2021/12/25 02:12:47;;;;;;;8.07;2.73;;;;;;;17.90;51.44;99087.44;5048209;28;20188;-58
2021/12/25 02:15:16;;;;;;;11.33;2.97;;;;;;;17.90;51.73;99093.16;5060412;28;20187;-57
2021/12/25 02:20:17;;;;;;;5.57;2.67;;;;;;;17.85;51.51;99127.81;5057575;28;20814;-58
2021/12/25 02:22:45;;;;;;;7.40;3.10;;;;;;;17.85;51.74;99124.16;5068468;28;20544;-58
2021/12/25 02:25:10;;;;;;;7.47;2.97;;;;;;;17.83;51.75;99113.13;5067966;28;20449;-58
2021/12/25 02:27:37;;;;;;;4.90;2.90;;;;;;;17.82;51.79;99117.22;5069083;28;20420;-57
2021/12/25 02:30:04;;;;;;;6.87;2.80;;;;;;;17.90;51.34;99104.56;5066581;28;20175;-57
2021/12/25 02:32:29;;;;;;;5.53;3.23;;;;;;;17.84;51.86;99111.91;5048826;28;20842;-58
2021/12/25 02:34:55;;;;;;;4.43;2.50;;;;;;;17.85;51.31;99104.16;5054376;28;20441;-58
2021/12/25 02:37:20;;;;;;;9.00;2.50;;;;;;;17.84;51.60;99099.66;5072318;28;20179;-58
2021/12/25 02:39:46;;;;;;;7.70;2.80;;;;;;;17.82;51.29;99111.50;5071244;28;20571;-58
2021/12/25 02:42:11;;;;;;;4.60;2.23;;;;;;;17.83;51.56;99104.56;5073268;28;20572;-58
2021/12/25 02:44:37;;;;;;;7.30;2.57;;;;;;;17.87;51.65;99101.72;5072354;28;20179;-58
2021/12/25 02:47:09;;;;;;;5.90;2.70;;;;;;;17.86;51.74;99109.44;5072369;28;20195;-58
2021/12/25 02:49:36;;;;;;;5.83;2.27;;;;;;;17.90;51.59;99095.19;5071322;28;20181;-58
2021/12/25 02:52:01;;;;;;;6.60;2.40;;;;;;;17.91;51.44;99099.69;5070371;28;20534;-58
2021/12/25 02:54:27;;;;;;;5.83;2.73;;;;;;;17.89;51.79;99090.69;5071008;28;20491;-57
2021/12/25 02:56:52;;;;;;;5.57;2.33;;;;;;;17.86;51.93;99083.75;5070656;28;20659;-58
2021/12/25 02:59:17;;;;;;;6.43;3.60;;;;;;;17.88;51.41;99078.47;5068950;28;20223;-58
2021/12/25 03:01:43;;;;;;;7.83;2.60;;;;;;;17.88;51.80;99072.75;5071854;28;20201;-58
2021/12/25 03:04:08;;;;;;;5.87;2.43;;;;;;;17.89;51.39;99056.44;5072301;28;20178;-58
2021/12/25 03:06:35;;;;;;;9.07;2.63;;;;;;;17.94;51.14;99042.56;5071290;28;20203;-58
2021/12/25 03:09:01;;;;;;;7.73;2.60;;;;;;;17.95;51.21;99054.78;5071383;28;20175;-58
2021/12/25 03:11:26;;;;;;;5.60;2.67;;;;;;;17.95;51.20;99049.09;5071196;28;20522;-58
2021/12/25 03:14:04;;;;;;;6.37;3.07;;;;;;;18.03;51.00;99050.72;5055412;28;20179;-58
2021/12/25 03:16:29;;;;;;;10.83;2.37;;;;;;;18.05;50.91;99043.38;5053603;28;20197;-58
2021/12/25 03:18:56;;;;;;;5.03;3.00;;;;;;;18.05;50.83;99040.53;5056570;28;20430;-58
2021/12/25 03:21:21;;;;;;;9.53;2.80;;;;;;;18.06;50.81;99042.16;5051452;28;20187;-58
2021/12/25 03:23:48;;;;;;;6.80;2.90;;;;;;;18.02;50.97;99041.34;5065269;28;20483;-58
2021/12/25 03:26:14;;;;;;;4.40;2.33;;;;;;;17.99;50.93;99050.72;5070511;28;20548;-58
2021/12/25 03:28:42;;;;;;;6.07;2.10;;;;;;;17.98;51.03;99063.38;5070275;28;20398;-58
2021/12/25 03:31:14;;;;;;;5.07;2.50;;;;;;;17.98;50.84;99063.38;5064110;28;20176;-58
2021/12/25 03:33:40;;;;;;;6.30;2.37;;;;;;;17.93;51.82;99058.09;5070180;28;20430;-58
2021/12/25 03:36:05;;;;;;;7.53;3.20;;;;;;;17.90;51.51;99063.78;5071774;28;20474;-58
2021/12/25 03:38:31;;;;;;;8.63;2.73;;;;;;;17.96;51.13;99059.31;5055491;28;20188;-58
2021/12/25 03:40:57;;;;;;;9.93;2.90;;;;;;;17.87;51.48;99048.28;5053969;28;20211;-58
2021/12/25 03:43:22;;;;;;;8.97;2.87;;;;;;;17.84;51.25;99054.81;5061189;28;20950;-58
2021/12/25 03:45:48;;;;;;;6.60;2.50;;;;;;;17.89;51.33;99054.41;5052282;28;20180;-58
2021/12/25 03:48:41;;;;;;;5.00;2.50;;;;;;;17.92;51.21;99044.22;5052167;28;20631;-58
2021/12/25 03:59:06;;;;;;;4.97;2.40;;;;;;;17.89;51.45;99037.28;5056137;28;22587;-58
2021/12/25 04:01:44;;;;;;;8.27;2.50;;;;;;;17.90;51.12;99030.34;5058462;28;20434;-58
2021/12/25 04:04:20;;;;;;;5.80;2.40;;;;;;;17.85;51.26;99027.88;5050710;28;20428;-58
2021/12/25 04:06:58;;;;;;;6.60;2.30;;;;;;;17.85;51.52;99021.38;5051689;28;20430;-58
2021/12/25 04:09:26;;;;;;;7.23;2.70;;;;;;;17.91;51.69;99028.31;5062760;28;20441;-58
2021/12/25 04:11:52;;;;;;;4.63;2.10;;;;;;;17.91;51.39;99029.09;5051329;28;20933;-57
2021/12/25 04:14:18;;;;;;;7.70;2.07;;;;;;;17.90;51.41;99023.81;5051687;28;20813;-58
2021/12/25 04:16:43;;;;;;;6.63;2.47;;;;;;;17.93;50.96;99025.84;5051158;28;20513;-58
2021/12/25 04:19:08;;;;;;;4.23;2.23;;;;;;;17.91;51.44;99028.31;5062053;28;20206;-58
2021/12/25 04:21:36;;;;;;;5.03;2.60;;;;;;;17.90;51.28;99030.34;5050531;28;20174;-58
2021/12/25 04:24:01;;;;;;;4.53;2.50;;;;;;;17.90;51.48;99038.91;5065284;28;20187;-57
2021/12/25 04:26:27;;;;;;;5.57;2.17;;;;;;;17.88;51.63;99035.66;5070582;28;20472;-58
2021/12/25 04:29:05;;;;;;;4.93;2.67;;;;;;;17.89;51.31;99033.59;5069150;28;20602;-58
2021/12/25 04:48:48;;;;;;;3.37;2.00;;;;;;;18.03;50.89;99033.59;5069072;28;20475;-57
2021/12/25 05:01:46;;;;;;;6.20;2.53;;;;;;;18.01;50.75;99022.56;5068756;28;20432;-58
2021/12/25 05:04:17;;;;;;;4.20;2.00;;;;;;;17.99;50.89;99022.19;5070111;28;20524;-57
2021/12/25 05:06:43;;;;;;;6.00;2.17;;;;;;;18.03;50.97;99022.16;5069280;28;20437;-58
2021/12/25 05:09:08;;;;;;;4.30;2.10;;;;;;;17.98;50.73;99020.56;5067193;28;20417;-58
2021/12/25 05:11:34;;;;;;;4.70;1.90;;;;;;;17.99;50.75;99022.19;5066139;28;20183;-58
2021/12/25 05:13:59;;;;;;;3.53;2.00;;;;;;;17.96;51.03;99028.69;5062418;28;20187;-58
2021/12/25 05:16:26;;;;;;;3.37;1.90;;;;;;;17.93;51.31;99023.81;5069045;28;20175;-58
2021/12/25 05:18:51;;;;;;;4.17;2.13;;;;;;;17.95;51.66;99026.25;5065021;28;20198;-58
2021/12/25 05:21:18;;;;;;;3.47;1.80;;;;;;;17.94;51.21;99025.44;5061194;28;20505;-58
2021/12/25 05:23:44;;;;;;;10.37;2.20;;;;;;;17.92;51.39;99027.91;5068333;28;20214;-58
2021/12/25 05:26:09;;;;;;;5.10;1.93;;;;;;;17.98;50.99;99031.97;5069790;28;20432;-58
2021/12/25 05:28:43;;;;;;;4.80;2.13;;;;;;;18.01;50.91;99030.34;5067644;28;20183;-58
2021/12/25 05:31:10;;;;;;;4.87;1.80;;;;;;;18.00;50.73;99038.09;5060390;28;20695;-58
2021/12/25 05:33:36;;;;;;;5.53;1.90;;;;;;;17.96;51.19;99040.13;5069155;28;20497;-58
2021/12/25 05:36:01;;;;;;;3.47;1.73;;;;;;;17.95;51.27;99037.66;5051458;28;20450;-58
2021/12/25 05:38:27;;;;;;;4.93;2.23;;;;;;;17.98;51.35;99049.09;5048200;28;20458;-58
2021/12/25 05:40:52;;;;;;;4.43;1.87;;;;;;;17.97;51.06;99058.88;5049372;28;20203;-58
2021/12/25 05:43:18;;;;;;;6.30;2.30;;;;;;;18.00;51.22;99051.53;5060539;28;20190;-58
2021/12/25 05:45:43;;;;;;;6.20;2.30;;;;;;;17.94;51.40;99065.41;5066554;28;20191;-57
2021/12/25 05:48:12;;;;;;;5.63;2.20;;;;;;;17.97;51.17;99064.59;5061932;28;20258;-58
2021/12/25 05:50:37;;;;;;;6.27;2.30;;;;;;;18.00;51.34;99062.94;5060882;28;20210;-58
2021/12/25 05:53:04;;;;;;;4.10;2.07;;;;;;;17.99;50.99;99058.47;5050500;28;20483;-57
2021/12/25 05:55:29;;;;;;;3.60;1.80;;;;;;;17.98;51.01;99063.38;5067700;28;20197;-57
2021/12/25 05:57:55;;;;;;;4.27;2.27;;;;;;;18.03;50.61;99067.88;5049224;28;20466;-58
2021/12/25 06:00:20;;;;;;;6.40;1.90;;;;;;;18.00;50.71;99069.50;5050003;28;20187;-58
2021/12/25 06:02:46;;;;;;;4.33;2.00;;;;;;;17.97;51.33;99060.94;5068854;28;20256;-58
2021/12/25 06:05:12;;;;;;;4.90;2.00;;;;;;;17.96;51.53;99067.88;5068344;28;20570;-58
2021/12/25 06:07:37;;;;;;;5.47;2.00;;;;;;;17.97;51.04;99053.16;5066439;28;20704;-58
2021/12/25 06:10:06;;;;;;;7.70;1.90;;;;;;;17.98;51.37;99066.25;5061583;28;20205;-57
2021/12/25 06:12:32;;;;;;;4.03;1.90;;;;;;;18.01;51.24;99064.59;5048135;28;20198;-58
2021/12/25 06:15:00;;;;;;;7.93;2.03;;;;;;;17.97;51.28;99063.78;5055212;28;20931;-58
2021/12/25 06:17:26;;;;;;;5.53;2.27;;;;;;;17.96;51.25;99062.97;5061567;28;20239;-58
2021/12/25 06:19:52;;;;;;;5.43;2.00;;;;;;;17.95;51.42;99061.34;5067988;28;20814;-57
2021/12/25 06:22:17;;;;;;;4.90;2.50;;;;;;;18.00;50.98;99065.81;5068156;28;20174;-58
2021/12/25 06:24:44;;;;;;;4.47;2.27;;;;;;;18.04;50.96;99064.59;5068355;28;20233;-58
2021/12/25 06:27:10;;;;;;;4.37;2.30;;;;;;;17.95;51.73;99069.91;5067168;28;20641;-57
2021/12/25 06:29:35;;;;;;;3.60;1.87;;;;;;;17.96;51.13;99074.38;5069057;28;20489;-58
2021/12/25 06:32:00;;;;;;;6.77;1.90;;;;;;;17.92;51.42;99070.72;5069545;28;20164;-58
2021/12/25 06:34:26;;;;;;;4.00;2.00;;;;;;;17.98;51.11;99071.13;5067526;28;20187;-58
2021/12/25 06:36:51;;;;;;;5.60;2.20;;;;;;;18.00;51.45;99068.66;5068196;28;20179;-58
2021/12/25 06:39:17;;;;;;;4.10;2.27;;;;;;;17.96;51.18;99065.03;5067027;28;20202;-58
2021/12/25 06:41:45;;;;;;;8.57;2.30;;;;;;;17.98;51.25;99083.38;5067947;28;20191;-58
2021/12/25 06:44:11;;;;;;;4.13;2.00;;;;;;;17.99;51.43;99073.59;5068044;28;20171;-58
2021/12/25 06:46:36;;;;;;;3.60;2.17;;;;;;;18.02;50.74;99078.47;5068845;28;20479;-58
2021/12/25 06:49:01;;;;;;;4.50;2.50;;;;;;;17.99;51.16;99078.47;5068945;28;20263;-58
2021/12/25 06:51:27;;;;;;;3.73;1.83;;;;;;;17.95;50.99;99075.59;5068971;28;20517;-58
2021/12/25 06:53:52;;;;;;;3.80;2.00;;;;;;;17.96;51.22;99076.44;5068452;28;20194;-58
2021/12/25 06:56:18;;;;;;;5.70;2.40;;;;;;;17.99;51.44;99076.44;5067249;28;20623;-58
2021/12/25 06:58:43;;;;;;;3.73;2.10;;;;;;;17.97;50.77;99073.16;5064504;28;20227;-58
2021/12/25 07:01:09;;;;;;;3.93;2.10;;;;;;;17.99;51.01;99076.44;5068395;28;20206;-58
2021/12/25 07:03:34;;;;;;;5.23;2.13;;;;;;;17.93;51.46;99075.22;5068958;28;20175;-57
2021/12/25 07:06:00;;;;;;;4.20;2.00;;;;;;;17.96;51.45;99074.38;5068124;28;20199;-58
2021/12/25 07:08:26;;;;;;;4.00;1.60;;;;;;;17.97;50.74;99078.06;5062308;28;20172;-58
2021/12/25 07:10:51;;;;;;;4.10;1.90;;;;;;;17.95;51.08;99080.50;5067674;28;20171;-58
2021/12/25 07:13:18;;;;;;;3.47;1.90;;;;;;;17.97;51.19;99083.78;5067249;28;20194;-57
2021/12/25 07:15:44;;;;;;;4.80;2.00;;;;;;;17.99;51.09;99084.16;5065162;28;20939;-58
2021/12/25 07:18:10;;;;;;;3.37;1.80;;;;;;;17.91;51.43;99083.34;5068492;28;20425;-57
2021/12/25 07:20:35;;;;;;;6.77;1.90;;;;;;;18.01;50.89;99087.47;5063392;28;20959;-58
2021/12/25 07:23:01;;;;;;;5.77;2.13;;;;;;;17.95;51.15;99089.06;5059901;28;20191;-58
2021/12/25 07:25:26;;;;;;;4.63;1.90;;;;;;;17.97;50.91;99095.19;5069566;28;20545;-58
2021/12/25 07:27:52;;;;;;;3.47;1.90;;;;;;;17.99;50.91;99093.56;5070682;28;20197;-58
2021/12/25 07:30:18;;;;;;;4.43;1.90;;;;;;;17.96;51.32;99099.28;5070756;28;20217;-58
2021/12/25 07:32:43;;;;;;;4.07;1.67;;;;;;;18.01;50.79;99101.75;5070285;28;20191;-57
2021/12/25 07:35:09;;;;;;;4.60;1.87;;;;;;;17.97;51.22;99098.06;5057988;28;20429;-58
2021/12/25 07:37:34;;;;;;;4.80;2.10;;;;;;;17.98;51.32;99100.50;5051633;28;20286;-57
2021/12/25 07:40:01;;;;;;;3.73;2.03;;;;;;;17.96;50.89;99100.09;5062757;28;20285;-58
2021/12/25 07:42:26;;;;;;;3.53;1.57;;;;;;;18.01;51.00;99099.69;5069539;28;20540;-58
2021/12/25 07:44:55;;;;;;;3.90;1.80;;;;;;;18.00;50.79;99105.78;5051119;28;20437;-58
2021/12/25 07:47:22;;;;;;;4.20;1.90;;;;;;;18.05;51.16;99111.94;5050316;28;20179;-58
2021/12/25 07:49:48;;;;;;;4.70;2.30;;;;;;;18.05;51.68;99111.94;5051837;28;20410;-58
2021/12/25 07:52:15;;;;;;;2.90;1.80;;;;;;;18.01;51.19;99108.25;5067421;28;20465;-58
2021/12/25 07:54:40;;;;;;;4.37;1.97;;;;;;;18.02;50.96;99109.06;5069381;28;20417;-57
2021/12/25 07:57:05;;;;;;;4.33;2.10;;;;;;;17.99;51.00;99115.59;5067980;28;20457;-58
2021/12/25 07:59:31;;;;;;;3.87;1.60;;;;;;;18.01;51.00;99110.31;5065866;28;20261;-57
2021/12/25 08:01:56;;;;;;;5.13;2.03;;;;;;;18.00;51.57;99114.34;5070626;28;20186;-58
2021/12/25 08:04:22;;;;;;;3.60;1.27;;;;;;;18.00;51.14;99118.03;5068401;28;20545;-58
2021/12/25 08:06:47;;;;;;;3.27;1.57;;;;;;;17.99;51.03;99121.28;5061340;28;20226;-58
2021/12/25 08:09:13;;;;;;;4.20;1.90;;;;;;;18.01;51.19;99111.09;5070967;28;20653;-58
2021/12/25 08:11:38;;;;;;;4.00;2.27;;;;;;;17.99;51.40;99109.88;5069585;28;20575;-58
2021/12/25 08:14:04;;;;;;;4.63;2.10;;;;;;;18.01;51.29;99116.00;5065024;28;20576;-58
2021/12/25 08:16:29;;;;;;;5.07;1.77;;;;;;;18.10;51.05;99122.13;5069232;28;20182;-58
2021/12/25 08:18:54;;;;;;;4.50;1.90;;;;;;;18.07;51.27;99117.25;5067051;28;20176;-58
2021/12/25 08:21:20;;;;;;;4.00;1.77;;;;;;;18.08;50.75;99127.44;5050177;28;20667;-58
2021/12/25 08:23:47;;;;;;;2.37;1.33;;;;;;;18.07;51.29;99123.75;5050836;28;20183;-58
2021/12/25 08:26:12;;;;;;;2.87;1.40;;;;;;;18.04;51.07;99127.44;5050954;28;20691;-58
2021/12/25 08:28:38;;;;;;;3.30;1.90;;;;;;;18.06;50.73;99127.84;5069838;28;20444;-58
2021/12/25 08:31:03;;;;;;;3.83;1.97;;;;;;;18.05;50.95;99129.06;5071149;28;20174;-58
2021/12/25 08:33:29;;;;;;;4.37;1.90;;;;;;;18.04;51.54;99143.75;5069759;28;20247;-58
2021/12/25 08:35:55;;;;;;;5.23;2.20;;;;;;;17.97;51.29;99132.31;5069930;28;20186;-58
2021/12/25 08:38:20;;;;;;;6.10;4.20;;;;;;;17.96;51.75;99134.34;5057948;28;20351;-58
2021/12/25 08:40:46;;;;;;;8.43;3.53;;;;;;;18.00;51.16;99138.03;5049629;28;20596;-57
2021/12/25 08:43:13;;;;;;;7.20;3.63;;;;;;;17.98;50.85;99134.78;5052046;28;20251;-58
2021/12/25 08:45:44;;;;;;;7.17;3.90;;;;;;;17.99;51.00;99147.81;5057828;28;20194;-59
2021/12/25 08:48:20;;;;;;;6.53;3.47;;;;;;;18.00;50.99;99145.78;5065644;28;20449;-58
2021/12/25 08:50:54;;;;;;;7.83;3.80;;;;;;;18.00;50.79;99155.16;5065848;28;20470;-59
2021/12/25 08:53:20;;;;;;;6.03;4.00;;;;;;;18.02;50.54;99143.34;5056121;28;20496;-58
2021/12/25 08:55:46;;;;;;;9.37;3.40;;;;;;;18.00;50.77;99149.47;5049825;28;20825;-58
2021/12/25 08:58:11;;;;;;;6.57;3.73;;;;;;;17.98;51.29;99156.78;5064721;28;20473;-58
2021/12/25 09:00:37;;;;;;;5.63;3.33;;;;;;;18.00;50.91;99152.31;5069751;28;20202;-58
2021/12/25 09:03:02;;;;;;;7.00;3.80;;;;;;;17.98;51.02;99151.09;5057565;28;20617;-58
2021/12/25 09:05:28;;;;;;;5.57;3.03;;;;;;;18.02;50.83;99149.84;5049557;28;20156;-58
2021/12/25 09:07:53;;;;;;;6.97;3.70;;;;;;;18.02;50.87;99147.00;5050482;28;20588;-58
2021/12/25 09:10:19;;;;;;;6.33;2.80;;;;;;;18.00;51.47;99149.47;5054640;28;20179;-57
2021/12/25 09:12:45;;;;;;;8.80;3.43;;;;;;;18.04;50.70;99156.00;5066082;28;20167;-58
2021/12/25 09:15:11;;;;;;;5.80;3.47;;;;;;;18.02;50.99;99158.41;5070009;28;20182;-58
2021/12/25 09:17:37;;;;;;;4.13;2.63;;;;;;;18.01;51.34;99153.94;5069634;28;20519;-58
2021/12/25 09:20:03;;;;;;;6.43;3.50;;;;;;;18.00;51.06;99155.16;5070287;28;20570;-58
2021/12/25 09:22:28;;;;;;;5.60;2.70;;;;;;;18.08;50.80;99161.72;5065919;28;20247;-58
2021/12/25 09:24:54;;;;;;;5.30;3.23;;;;;;;18.07;51.05;99163.72;5069264;28;20424;-58
2021/12/25 09:27:19;;;;;;;4.20;2.77;;;;;;;18.11;50.75;99167.41;5067683;28;20175;-57
2021/12/25 09:29:45;;;;;;;4.50;3.30;;;;;;;18.07;50.92;99172.31;5067989;28;20184;-58
2021/12/25 09:32:11;;;;;;;6.00;2.80;;;;;;;18.06;51.04;99175.59;5068656;28;20171;-58
2021/12/25 09:34:36;;;;;;;7.50;3.50;;;;;;;18.06;50.80;99169.88;5067082;28;20191;-58
2021/12/25 09:37:02;;;;;;;5.40;3.10;;;;;;;18.07;50.84;99168.66;5049094;28;20203;-58
2021/12/25 09:39:27;;;;;;;6.30;2.77;;;;;;;18.10;50.70;99170.69;5059619;28;20572;-58
2021/12/25 09:41:53;;;;;;;5.20;3.40;;;;;;;18.08;50.57;99173.13;5070197;28;20626;-58
2021/12/25 09:44:18;;;;;;;5.37;2.90;;;;;;;18.08;51.01;99171.09;5065182;28;20183;-57
2021/12/25 09:46:44;;;;;;;7.30;2.97;;;;;;;18.12;50.75;99173.97;5069367;28;20232;-58
2021/12/25 09:49:10;;;;;;;3.93;2.60;;;;;;;18.12;50.71;99177.63;5069260;28;20169;-59
2021/12/25 09:51:36;;;;;;;7.13;3.03;;;;;;;18.13;50.46;99169.88;5068763;28;20532;-58
2021/12/25 09:54:08;;;;;;;4.67;2.63;;;;;;;18.11;50.56;99173.13;5069044;28;20438;-57
2021/12/25 09:56:39;;;;;;;4.33;2.40;;;;;;;18.09;51.34;99178.44;5067317;28;20155;-58
2021/12/25 09:59:05;;;;;;;6.00;3.10;;;;;;;18.12;51.26;99173.97;5065259;28;20501;-58
2021/12/25 10:01:42;;;;;;;6.67;2.70;;;;;;;18.08;51.10;99173.97;5068810;28;20446;-58
2021/12/25 10:04:11;;;;;;;3.83;2.40;;;;;;;18.10;51.34;99180.06;5069492;28;20173;-58
2021/12/25 10:06:38;;;;;;;5.23;3.10;;;;;;;18.12;50.77;99180.47;5068530;28;20441;-58
2021/12/25 10:09:24;;;;;;;5.73;2.83;;;;;;;18.07;51.24;99183.72;5068983;28;20440;-58
2021/12/25 10:12:11;;;;;;;6.03;2.70;;;;;;;18.06;50.94;99178.44;5068226;28;20456;-58
2021/12/25 10:14:37;;;;;;;5.30;3.10;;;;;;;18.07;51.16;99166.59;5069627;28;20420;-58
2021/12/25 10:17:20;;;;;;;3.87;2.60;;;;;;;18.12;51.32;99171.09;5068592;28;20524;-58
2021/12/25 10:20:07;;;;;;;7.03;3.17;;;;;;;18.10;51.00;99170.69;5065122;28;20979;-57
2021/12/25 10:22:33;;;;;;;6.17;2.67;;;;;;;18.13;50.69;99169.88;5069487;28;20423;-58
2021/12/25 10:25:10;;;;;;;7.50;2.80;;;;;;;18.11;50.97;99173.13;5067655;28;20905;-58
2021/12/25 10:27:36;;;;;;;5.50;3.10;;;;;;;18.12;50.73;99168.25;5066943;28;20467;-57
2021/12/25 10:30:05;;;;;;;4.00;2.83;;;;;;;18.11;51.09;99166.63;5068820;28;20433;-58
2021/12/25 10:32:30;;;;;;;6.07;3.03;;;;;;;18.14;50.59;99169.47;5068855;28;20179;-58
2021/12/25 10:34:56;;;;;;;4.07;2.70;;;;;;;18.07;50.68;99157.22;5068452;28;20420;-58
2021/12/25 10:37:22;;;;;;;7.43;3.17;;;;;;;18.10;50.91;99157.22;5068709;28;20209;-58
2021/12/25 10:39:47;;;;;;;4.80;2.70;;;;;;;18.07;50.81;99149.44;5066995;28;20191;-58
2021/12/25 10:42:17;;;;;;;7.43;2.63;;;;;;;18.07;50.65;99149.44;5062995;28;20265;-58
2021/12/25 10:44:47;;;;;;;6.40;3.33;;;;;;;18.11;50.86;99150.28;5068238;28;20631;-58
2021/12/25 10:47:17;;;;;;;4.40;2.27;;;;;;;18.10;51.02;99147.81;5061475;28;20439;-57
2021/12/25 10:49:45;;;;;;;4.37;2.57;;;;;;;18.08;50.64;99139.69;5068631;28;20413;-58
2021/12/25 10:52:32;;;;;;;6.83;2.60;;;;;;;18.10;51.14;99142.94;5068920;28;20412;-58
2021/12/25 10:55:05;;;;;;;4.43;2.43;;;;;;;18.08;50.65;99133.97;5067755;28;20439;-58
2021/12/25 10:57:39;;;;;;;7.47;2.80;;;;;;;18.11;50.84;99138.06;5055233;28;20666;-58
2021/12/25 11:00:26;;;;;;;5.30;2.63;;;;;;;18.08;50.79;99133.16;5050747;28;20465;-58
2021/12/25 11:02:58;;;;;;;4.33;2.17;;;;;;;18.11;50.64;99138.06;5070307;28;20430;-58
2021/12/25 11:05:43;;;;;;;4.30;2.67;;;;;;;18.12;50.56;99131.13;5070223;28;20413;-58
2021/12/25 11:08:11;;;;;;;4.60;2.80;;;;;;;18.12;50.76;99133.97;5069930;28;20447;-58
2021/12/25 11:10:47;;;;;;;4.10;2.40;;;;;;;18.12;50.68;99126.19;5068238;28;20428;-58
2021/12/25 11:13:19;;;;;;;4.83;2.30;;;;;;;18.12;51.22;99126.19;5060364;28;20472;-58
2021/12/25 11:15:44;;;;;;;5.83;2.77;;;;;;;18.13;50.86;99127.88;5068572;28;20986;-57
2021/12/25 11:18:10;;;;;;;4.47;2.50;;;;;;;18.15;50.79;99122.53;5070182;28;20417;-58
2021/12/25 11:20:38;;;;;;;5.80;2.70;;;;;;;18.14;51.03;99122.94;5065171;28;20215;-58
2021/12/25 11:23:09;;;;;;;6.53;2.67;;;;;;;18.12;50.96;99123.34;5070278;28;20896;-58
2021/12/25 11:25:35;;;;;;;5.83;2.40;;;;;;;18.10;50.88;99116.41;5072331;28;20428;-58
2021/12/25 11:28:01;;;;;;;4.50;2.87;;;;;;;18.12;51.00;99111.13;5070573;28;20525;-58
2021/12/25 11:30:31;;;;;;;4.80;3.00;;;;;;;18.14;50.71;99117.22;5071824;28;20920;-58
2021/12/25 11:32:56;;;;;;;6.20;2.87;;;;;;;18.15;50.99;99107.44;5071407;28;20503;-57
2021/12/25 11:35:22;;;;;;;4.77;2.93;;;;;;;18.10;50.97;99114.38;5070858;28;20936;-58
2021/12/25 11:37:48;;;;;;;6.10;2.80;;;;;;;18.19;50.90;99114.81;5070712;28;20301;-58
2021/12/25 11:40:14;;;;;;;4.97;2.40;;;;;;;18.15;51.02;99113.97;5070444;28;20314;-58
2021/12/25 11:42:48;;;;;;;4.80;2.30;;;;;;;18.14;50.66;99109.50;5067437;28;20432;-58
2021/12/25 11:45:37;;;;;;;4.67;2.50;;;;;;;18.10;51.22;99105.81;5068637;28;20835;-58
2021/12/25 11:48:19;;;;;;;6.40;2.90;;;;;;;18.17;50.73;99105.81;5063317;28;20426;-58
2021/12/25 11:50:49;;;;;;;5.20;2.40;;;;;;;18.18;50.60;99107.47;5050704;28;20418;-58
2021/12/25 11:53:23;;;;;;;5.20;2.97;;;;;;;18.20;51.27;99112.75;5068533;28;20445;-57
2021/12/25 11:59:00;;;;;;;5.63;2.50;;;;;;;18.13;51.26;99113.56;5067532;28;20517;-58
2021/12/25 12:01:40;;;;;;;5.77;2.83;;;;;;;18.16;51.08;99107.03;5070434;28;21001;-58
2021/12/25 12:04:11;;;;;;;4.57;2.50;;;;;;;18.16;50.86;99109.09;5066499;28;20785;-58
2021/12/25 12:09:17;;;;;;;6.30;3.17;;;;;;;18.23;50.94;99111.94;5070933;28;20804;-58
2021/12/25 12:11:51;;;;;;;4.97;2.50;;;;;;;18.21;50.72;99120.13;5068816;28;20447;-58
2021/12/25 12:14:20;;;;;;;4.43;2.50;;;;;;;18.18;51.21;99113.19;5068787;28;20445;-58
2021/12/25 12:16:50;;;;;;;4.67;2.40;;;;;;;18.22;50.37;99116.03;5050821;28;20407;-58
2021/12/25 12:19:36;;;;;;;3.77;2.43;;;;;;;18.19;50.46;99111.13;5059623;28;20445;-58
2021/12/25 12:22:16;;;;;;;4.60;2.53;;;;;;;18.20;50.73;99113.56;5069548;28;20409;-58
2021/12/25 12:25:14;;;;;;;3.57;2.03;;;;;;;18.21;50.80;99114.41;5070650;28;20405;-58
2021/12/25 12:27:42;;;;;;;5.27;2.73;;;;;;;18.20;51.08;99113.56;5069549;28;20426;-58
2021/12/25 12:30:10;;;;;;;4.30;2.73;;;;;;;18.23;50.85;99107.06;5064847;28;20422;-58
2021/12/25 12:32:43;;;;;;;4.60;2.67;;;;;;;18.23;50.66;99107.06;5050839;28;20472;-57
2021/12/25 12:35:41;;;;;;;5.20;2.47;;;;;;;18.18;50.95;99103.78;5065037;28;20433;-58
2021/12/25 12:38:41;;;;;;;4.50;2.43;;;;;;;18.20;50.74;99110.72;5026985;28;20527;-58
2021/12/25 12:41:27;;;;;;;4.97;2.93;;;;;;;18.18;50.96;99098.88;5051614;28;20454;-58
2021/12/25 12:44:04;;;;;;;4.87;2.97;;;;;;;18.17;50.55;99108.66;5062348;28;20450;-58
2021/12/25 12:46:52;;;;;;;5.20;2.47;;;;;;;18.23;50.71;99109.91;5067899;28;20417;-58